sensor_id;sensor_type;location;lat;lon;timestamp;P1;durP1;ratioP1;P2;durP2;ratioP2
9370;SDS011;4725;48.384;8.984;2023-01-06T00:00:22;2.00;;;1.63;;
9370;SDS011;4725;48.384;8.984;2023-01-06T00:02:49;3.80;;;1.63;;
9370;SDS011;4725;48.384;8.984;2023-01-06T00:05:16;1.50;;;1.40;;
9370;SDS011;4725;48.384;8.984;2023-01-06T00:07:43;2.10;;;1.73;;
9370;SDS011;4725;48.384;8.984;2023-01-06T00:10:10;2.57;;;1.70;;
9370;SDS011;4725;48.384;8.984;2023-01-06T00:12:37;2.33;;;1.63;;
9370;SDS011;4725;48.384;8.984;2023-01-06T00:15:05;2.40;;;1.57;;
9370;SDS011;4725;48.384;8.984;2023-01-06T00:17:33;1.93;;;1.47;;
9370;SDS011;4725;48.384;8.984;2023-01-06T00:20:01;1.83;;;1.17;;
9370;SDS011;4725;48.384;8.984;2023-01-06T00:22:28;1.43;;;1.10;;
9370;SDS011;4725;48.384;8.984;2023-01-06T00:24:55;3.33;;;1.53;;
9370;SDS011;4725;48.384;8.984;2023-01-06T00:27:22;1.43;;;1.23;;
9370;SDS011;4725;48.384;8.984;2023-01-06T00:29:49;1.43;;;1.23;;
9370;SDS011;4725;48.384;8.984;2023-01-06T00:32:16;1.30;;;1.20;;
9370;SDS011;4725;48.384;8.984;2023-01-06T00:34:45;3.07;;;1.63;;
9370;SDS011;4725;48.384;8.984;2023-01-06T00:37:12;1.20;;;1.10;;
9370;SDS011;4725;48.384;8.984;2023-01-06T00:39:39;3.20;;;1.80;;
9370;SDS011;4725;48.384;8.984;2023-01-06T00:42:06;3.07;;;1.50;;
9370;SDS011;4725;48.384;8.984;2023-01-06T00:44:33;1.63;;;1.17;;
9370;SDS011;4725;48.384;8.984;2023-01-06T00:47:02;1.53;;;1.27;;
9370;SDS011;4725;48.384;8.984;2023-01-06T00:49:30;1.13;;;1.03;;
9370;SDS011;4725;48.384;8.984;2023-01-06T00:51:58;3.20;;;1.60;;
9370;SDS011;4725;48.384;8.984;2023-01-06T00:54:25;1.87;;;1.53;;
9370;SDS011;4725;48.384;8.984;2023-01-06T00:56:53;3.73;;;1.50;;
9370;SDS011;4725;48.384;8.984;2023-01-06T00:59:22;2.00;;;1.50;;
9370;SDS011;4725;48.384;8.984;2023-01-06T01:01:51;2.30;;;1.40;;
9370;SDS011;4725;48.384;8.984;2023-01-06T01:04:20;3.27;;;1.40;;
9370;SDS011;4725;48.384;8.984;2023-01-06T01:06:48;2.43;;;1.93;;
9370;SDS011;4725;48.384;8.984;2023-01-06T01:09:17;2.23;;;1.53;;
9370;SDS011;4725;48.384;8.984;2023-01-06T01:11:46;3.83;;;1.93;;
9370;SDS011;4725;48.384;8.984;2023-01-06T01:14:30;3.63;;;1.60;;
9370;SDS011;4725;48.384;8.984;2023-01-06T01:16:57;1.63;;;1.37;;
9370;SDS011;4725;48.384;8.984;2023-01-06T01:19:24;1.70;;;1.57;;
9370;SDS011;4725;48.384;8.984;2023-01-06T01:21:52;3.47;;;1.80;;
9370;SDS011;4725;48.384;8.984;2023-01-06T01:24:20;1.90;;;1.60;;
9370;SDS011;4725;48.384;8.984;2023-01-06T01:26:47;2.17;;;1.60;;
9370;SDS011;4725;48.384;8.984;2023-01-06T01:29:15;1.97;;;1.40;;
9370;SDS011;4725;48.384;8.984;2023-01-06T01:31:43;2.63;;;2.10;;
9370;SDS011;4725;48.384;8.984;2023-01-06T01:34:11;2.43;;;1.90;;
9370;SDS011;4725;48.384;8.984;2023-01-06T01:36:39;2.40;;;1.73;;
9370;SDS011;4725;48.384;8.984;2023-01-06T01:39:07;4.13;;;2.10;;
9370;SDS011;4725;48.384;8.984;2023-01-06T01:41:36;2.47;;;1.67;;
9370;SDS011;4725;48.384;8.984;2023-01-06T01:47:04;1.73;;;1.40;;
9370;SDS011;4725;48.384;8.984;2023-01-06T01:49:31;5.80;;;1.90;;
9370;SDS011;4725;48.384;8.984;2023-01-06T01:52:02;1.63;;;1.53;;
9370;SDS011;4725;48.384;8.984;2023-01-06T01:54:29;1.87;;;1.43;;
9370;SDS011;4725;48.384;8.984;2023-01-06T01:57:02;2.07;;;1.70;;
9370;SDS011;4725;48.384;8.984;2023-01-06T01:59:31;2.03;;;1.63;;
9370;SDS011;4725;48.384;8.984;2023-01-06T02:02:00;2.20;;;1.73;;
9370;SDS011;4725;48.384;8.984;2023-01-06T02:04:27;4.37;;;1.70;;
9370;SDS011;4725;48.384;8.984;2023-01-06T02:06:57;2.43;;;1.60;;
9370;SDS011;4725;48.384;8.984;2023-01-06T02:09:25;1.53;;;1.30;;
9370;SDS011;4725;48.384;8.984;2023-01-06T02:11:55;1.80;;;1.50;;
9370;SDS011;4725;48.384;8.984;2023-01-06T02:14:24;1.60;;;1.23;;
9370;SDS011;4725;48.384;8.984;2023-01-06T02:16:56;1.60;;;1.50;;
9370;SDS011;4725;48.384;8.984;2023-01-06T02:19:45;1.53;;;1.30;;
9370;SDS011;4725;48.384;8.984;2023-01-06T02:23:01;2.00;;;1.10;;
9370;SDS011;4725;48.384;8.984;2023-01-06T02:28:41;1.80;;;1.50;;
9370;SDS011;4725;48.384;8.984;2023-01-06T02:31:31;2.80;;;1.67;;
9370;SDS011;4725;48.384;8.984;2023-01-06T02:34:21;1.83;;;1.33;;
9370;SDS011;4725;48.384;8.984;2023-01-06T02:36:58;2.47;;;1.43;;
9370;SDS011;4725;48.384;8.984;2023-01-06T02:39:33;1.73;;;1.50;;
9370;SDS011;4725;48.384;8.984;2023-01-06T02:42:09;2.77;;;1.97;;
9370;SDS011;4725;48.384;8.984;2023-01-06T02:44:45;3.47;;;1.97;;
9370;SDS011;4725;48.384;8.984;2023-01-06T02:47:23;2.13;;;1.80;;
9370;SDS011;4725;48.384;8.984;2023-01-06T02:49:59;2.73;;;2.00;;
9370;SDS011;4725;48.384;8.984;2023-01-06T02:52:35;2.50;;;1.97;;
9370;SDS011;4725;48.384;8.984;2023-01-06T02:55:11;4.63;;;2.23;;
9370;SDS011;4725;48.384;8.984;2023-01-06T02:57:47;2.87;;;2.20;;
9370;SDS011;4725;48.384;8.984;2023-01-06T03:00:19;2.27;;;1.60;;
9370;SDS011;4725;48.384;8.984;2023-01-06T03:02:53;2.40;;;1.87;;
9370;SDS011;4725;48.384;8.984;2023-01-06T03:05:23;2.70;;;1.30;;
9370;SDS011;4725;48.384;8.984;2023-01-06T03:07:52;1.87;;;1.50;;
9370;SDS011;4725;48.384;8.984;2023-01-06T03:10:21;2.53;;;1.73;;
9370;SDS011;4725;48.384;8.984;2023-01-06T03:12:50;2.60;;;2.00;;
9370;SDS011;4725;48.384;8.984;2023-01-06T03:15:19;2.90;;;2.07;;
9370;SDS011;4725;48.384;8.984;2023-01-06T03:17:47;2.37;;;1.87;;
9370;SDS011;4725;48.384;8.984;2023-01-06T03:20:15;2.33;;;1.97;;
9370;SDS011;4725;48.384;8.984;2023-01-06T03:22:42;2.90;;;1.83;;
9370;SDS011;4725;48.384;8.984;2023-01-06T03:25:09;4.63;;;1.90;;
9370;SDS011;4725;48.384;8.984;2023-01-06T03:27:37;3.77;;;1.87;;
9370;SDS011;4725;48.384;8.984;2023-01-06T03:30:05;2.47;;;1.67;;
9370;SDS011;4725;48.384;8.984;2023-01-06T03:32:36;4.03;;;1.70;;
9370;SDS011;4725;48.384;8.984;2023-01-06T03:35:18;2.53;;;1.63;;
9370;SDS011;4725;48.384;8.984;2023-01-06T03:38:02;3.57;;;1.43;;
9370;SDS011;4725;48.384;8.984;2023-01-06T03:40:39;1.97;;;1.43;;
9370;SDS011;4725;48.384;8.984;2023-01-06T03:43:09;2.30;;;1.47;;
9370;SDS011;4725;48.384;8.984;2023-01-06T03:45:52;2.70;;;1.30;;
9370;SDS011;4725;48.384;8.984;2023-01-06T03:48:23;3.40;;;1.50;;
9370;SDS011;4725;48.384;8.984;2023-01-06T03:50:59;1.43;;;1.17;;
9370;SDS011;4725;48.384;8.984;2023-01-06T03:53:32;2.40;;;1.10;;
9370;SDS011;4725;48.384;8.984;2023-01-06T03:56:04;2.77;;;1.40;;
9370;SDS011;4725;48.384;8.984;2023-01-06T03:58:36;1.53;;;1.13;;
9370;SDS011;4725;48.384;8.984;2023-01-06T04:01:05;2.73;;;1.43;;
9370;SDS011;4725;48.384;8.984;2023-01-06T04:03:33;1.63;;;1.20;;
9370;SDS011;4725;48.384;8.984;2023-01-06T04:06:02;1.30;;;1.20;;
9370;SDS011;4725;48.384;8.984;2023-01-06T04:08:29;3.00;;;1.60;;
9370;SDS011;4725;48.384;8.984;2023-01-06T04:10:56;3.00;;;1.60;;
9370;SDS011;4725;48.384;8.984;2023-01-06T04:13:24;1.27;;;1.17;;
9370;SDS011;4725;48.384;8.984;2023-01-06T04:15:50;2.93;;;1.73;;
9370;SDS011;4725;48.384;8.984;2023-01-06T04:18:17;2.90;;;2.17;;
9370;SDS011;4725;48.384;8.984;2023-01-06T04:20:44;3.63;;;2.13;;
9370;SDS011;4725;48.384;8.984;2023-01-06T04:23:13;2.00;;;1.70;;
9370;SDS011;4725;48.384;8.984;2023-01-06T04:25:40;2.13;;;1.80;;
9370;SDS011;4725;48.384;8.984;2023-01-06T04:28:07;1.53;;;1.43;;
9370;SDS011;4725;48.384;8.984;2023-01-06T04:30:35;3.67;;;2.00;;
9370;SDS011;4725;48.384;8.984;2023-01-06T04:33:02;2.70;;;2.00;;
9370;SDS011;4725;48.384;8.984;2023-01-06T04:35:29;2.43;;;1.90;;
9370;SDS011;4725;48.384;8.984;2023-01-06T04:37:56;2.37;;;2.00;;
9370;SDS011;4725;48.384;8.984;2023-01-06T04:40:25;1.97;;;1.77;;
9370;SDS011;4725;48.384;8.984;2023-01-06T04:42:51;2.27;;;1.30;;
9370;SDS011;4725;48.384;8.984;2023-01-06T04:45:30;1.60;;;1.20;;
9370;SDS011;4725;48.384;8.984;2023-01-06T04:47:58;1.90;;;1.27;;
9370;SDS011;4725;48.384;8.984;2023-01-06T04:50:25;1.50;;;1.20;;
9370;SDS011;4725;48.384;8.984;2023-01-06T04:52:52;1.43;;;1.20;;
9370;SDS011;4725;48.384;8.984;2023-01-06T04:55:19;2.17;;;1.40;;
9370;SDS011;4725;48.384;8.984;2023-01-06T04:57:48;1.60;;;1.30;;
9370;SDS011;4725;48.384;8.984;2023-01-06T05:00:15;1.57;;;1.13;;
9370;SDS011;4725;48.384;8.984;2023-01-06T05:02:43;1.63;;;1.33;;
9370;SDS011;4725;48.384;8.984;2023-01-06T05:05:10;2.77;;;1.37;;
9370;SDS011;4725;48.384;8.984;2023-01-06T05:07:37;2.60;;;1.30;;
9370;SDS011;4725;48.384;8.984;2023-01-06T05:10:05;2.57;;;1.20;;
9370;SDS011;4725;48.384;8.984;2023-01-06T05:12:34;1.63;;;0.90;;
9370;SDS011;4725;48.384;8.984;2023-01-06T05:15:03;1.27;;;1.07;;
9370;SDS011;4725;48.384;8.984;2023-01-06T05:17:30;3.60;;;1.10;;
9370;SDS011;4725;48.384;8.984;2023-01-06T05:19:57;0.97;;;0.87;;
9370;SDS011;4725;48.384;8.984;2023-01-06T05:22:25;1.00;;;0.90;;
9370;SDS011;4725;48.384;8.984;2023-01-06T05:24:52;1.47;;;1.20;;
9370;SDS011;4725;48.384;8.984;2023-01-06T05:27:19;2.00;;;0.93;;
9370;SDS011;4725;48.384;8.984;2023-01-06T05:29:46;1.47;;;1.20;;
9370;SDS011;4725;48.384;8.984;2023-01-06T05:32:14;1.43;;;1.10;;
9370;SDS011;4725;48.384;8.984;2023-01-06T05:34:41;2.73;;;1.10;;
9370;SDS011;4725;48.384;8.984;2023-01-06T05:37:08;3.77;;;3.20;;
9370;SDS011;4725;48.384;8.984;2023-01-06T05:39:35;2.33;;;1.70;;
9370;SDS011;4725;48.384;8.984;2023-01-06T05:42:02;1.57;;;1.10;;
9370;SDS011;4725;48.384;8.984;2023-01-06T05:44:29;2.10;;;0.90;;
9370;SDS011;4725;48.384;8.984;2023-01-06T05:46:57;4.83;;;1.20;;
9370;SDS011;4725;48.384;8.984;2023-01-06T05:49:25;1.00;;;0.90;;
9370;SDS011;4725;48.384;8.984;2023-01-06T05:51:52;1.47;;;1.00;;
9370;SDS011;4725;48.384;8.984;2023-01-06T05:54:19;0.77;;;0.77;;
9370;SDS011;4725;48.384;8.984;2023-01-06T05:56:46;1.33;;;1.00;;
9370;SDS011;4725;48.384;8.984;2023-01-06T05:59:14;2.23;;;0.90;;
9370;SDS011;4725;48.384;8.984;2023-01-06T06:01:41;1.80;;;0.70;;
9370;SDS011;4725;48.384;8.984;2023-01-06T06:04:10;1.37;;;1.27;;
9370;SDS011;4725;48.384;8.984;2023-01-06T06:06:38;1.80;;;0.97;;
9370;SDS011;4725;48.384;8.984;2023-01-06T06:09:05;1.20;;;1.10;;
9370;SDS011;4725;48.384;8.984;2023-01-06T06:11:32;0.73;;;0.70;;
9370;SDS011;4725;48.384;8.984;2023-01-06T06:13:59;0.77;;;0.70;;
9370;SDS011;4725;48.384;8.984;2023-01-06T06:16:26;1.63;;;1.10;;
9370;SDS011;4725;48.384;8.984;2023-01-06T06:18:54;0.90;;;0.70;;
9370;SDS011;4725;48.384;8.984;2023-01-06T06:21:22;1.63;;;1.53;;
9370;SDS011;4725;48.384;8.984;2023-01-06T06:23:52;2.90;;;2.20;;
9370;SDS011;4725;48.384;8.984;2023-01-06T06:26:20;1.47;;;1.00;;
9370;SDS011;4725;48.384;8.984;2023-01-06T06:28:48;1.27;;;1.00;;
9370;SDS011;4725;48.384;8.984;2023-01-06T06:31:16;2.30;;;1.10;;
9370;SDS011;4725;48.384;8.984;2023-01-06T06:33:44;1.40;;;1.30;;
9370;SDS011;4725;48.384;8.984;2023-01-06T06:36:30;1.70;;;1.60;;
9370;SDS011;4725;48.384;8.984;2023-01-06T06:38:59;1.30;;;1.20;;
9370;SDS011;4725;48.384;8.984;2023-01-06T06:41:26;1.80;;;1.40;;
9370;SDS011;4725;48.384;8.984;2023-01-06T06:43:53;1.77;;;1.30;;
9370;SDS011;4725;48.384;8.984;2023-01-06T06:46:20;2.10;;;1.30;;
9370;SDS011;4725;48.384;8.984;2023-01-06T06:48:47;1.77;;;1.27;;
9370;SDS011;4725;48.384;8.984;2023-01-06T06:51:16;2.30;;;2.03;;
9370;SDS011;4725;48.384;8.984;2023-01-06T06:53:44;5.37;;;3.23;;
9370;SDS011;4725;48.384;8.984;2023-01-06T06:56:14;2.13;;;1.93;;
9370;SDS011;4725;48.384;8.984;2023-01-06T06:58:42;2.00;;;1.67;;
9370;SDS011;4725;48.384;8.984;2023-01-06T07:01:10;2.63;;;1.93;;
9370;SDS011;4725;48.384;8.984;2023-01-06T07:03:38;3.20;;;1.50;;
9370;SDS011;4725;48.384;8.984;2023-01-06T07:06:06;1.60;;;1.50;;
9370;SDS011;4725;48.384;8.984;2023-01-06T07:08:35;1.87;;;1.30;;
9370;SDS011;4725;48.384;8.984;2023-01-06T07:11:02;1.50;;;1.37;;
9370;SDS011;4725;48.384;8.984;2023-01-06T07:13:30;1.90;;;1.13;;
9370;SDS011;4725;48.384;8.984;2023-01-06T07:15:57;2.87;;;1.23;;
9370;SDS011;4725;48.384;8.984;2023-01-06T07:18:25;3.37;;;1.40;;
9370;SDS011;4725;48.384;8.984;2023-01-06T07:20:52;2.03;;;1.50;;
9370;SDS011;4725;48.384;8.984;2023-01-06T07:23:19;3.20;;;1.30;;
9370;SDS011;4725;48.384;8.984;2023-01-06T07:25:49;5.70;;;1.87;;
9370;SDS011;4725;48.384;8.984;2023-01-06T07:28:17;1.43;;;1.17;;
9370;SDS011;4725;48.384;8.984;2023-01-06T07:30:46;2.27;;;1.70;;
9370;SDS011;4725;48.384;8.984;2023-01-06T07:33:13;2.00;;;1.83;;
9370;SDS011;4725;48.384;8.984;2023-01-06T07:35:40;1.07;;;0.97;;
9370;SDS011;4725;48.384;8.984;2023-01-06T07:38:07;1.00;;;0.90;;
9370;SDS011;4725;48.384;8.984;2023-01-06T07:40:35;1.47;;;1.20;;
9370;SDS011;4725;48.384;8.984;2023-01-06T07:43:03;1.20;;;1.10;;
9370;SDS011;4725;48.384;8.984;2023-01-06T07:45:30;1.93;;;1.37;;
9370;SDS011;4725;48.384;8.984;2023-01-06T07:47:59;1.03;;;0.90;;
9370;SDS011;4725;48.384;8.984;2023-01-06T07:50:26;2.87;;;1.60;;
9370;SDS011;4725;48.384;8.984;2023-01-06T07:52:56;1.77;;;1.30;;
9370;SDS011;4725;48.384;8.984;2023-01-06T07:55:23;2.43;;;1.30;;
9370;SDS011;4725;48.384;8.984;2023-01-06T07:57:50;2.07;;;1.60;;
9370;SDS011;4725;48.384;8.984;2023-01-06T08:00:17;1.37;;;1.20;;
9370;SDS011;4725;48.384;8.984;2023-01-06T08:02:45;1.97;;;1.77;;
9370;SDS011;4725;48.384;8.984;2023-01-06T08:05:13;1.63;;;1.30;;
9370;SDS011;4725;48.384;8.984;2023-01-06T08:07:40;3.00;;;1.30;;
9370;SDS011;4725;48.384;8.984;2023-01-06T08:10:08;1.87;;;1.37;;
9370;SDS011;4725;48.384;8.984;2023-01-06T08:12:35;1.20;;;1.10;;
9370;SDS011;4725;48.384;8.984;2023-01-06T08:15:02;1.10;;;1.00;;
9370;SDS011;4725;48.384;8.984;2023-01-06T08:17:30;1.40;;;1.30;;
9370;SDS011;4725;48.384;8.984;2023-01-06T08:19:57;2.37;;;2.13;;
9370;SDS011;4725;48.384;8.984;2023-01-06T08:22:25;3.40;;;2.70;;
9370;SDS011;4725;48.384;8.984;2023-01-06T08:24:52;2.60;;;2.30;;
9370;SDS011;4725;48.384;8.984;2023-01-06T08:27:19;2.83;;;2.30;;
9370;SDS011;4725;48.384;8.984;2023-01-06T08:29:46;2.57;;;1.50;;
9370;SDS011;4725;48.384;8.984;2023-01-06T08:32:14;1.30;;;1.20;;
9370;SDS011;4725;48.384;8.984;2023-01-06T08:34:41;1.70;;;1.20;;
9370;SDS011;4725;48.384;8.984;2023-01-06T08:37:08;2.90;;;1.60;;
9370;SDS011;4725;48.384;8.984;2023-01-06T08:39:36;2.10;;;1.43;;
9370;SDS011;4725;48.384;8.984;2023-01-06T08:42:03;1.10;;;1.00;;
9370;SDS011;4725;48.384;8.984;2023-01-06T08:44:30;1.83;;;1.10;;
9370;SDS011;4725;48.384;8.984;2023-01-06T08:46:57;1.23;;;1.10;;
9370;SDS011;4725;48.384;8.984;2023-01-06T08:49:24;1.40;;;1.13;;
9370;SDS011;4725;48.384;8.984;2023-01-06T08:51:51;1.30;;;1.00;;
9370;SDS011;4725;48.384;8.984;2023-01-06T08:54:18;1.17;;;1.07;;
9370;SDS011;4725;48.384;8.984;2023-01-06T08:56:47;1.10;;;1.00;;
9370;SDS011;4725;48.384;8.984;2023-01-06T08:59:14;1.20;;;1.10;;
9370;SDS011;4725;48.384;8.984;2023-01-06T09:01:43;1.20;;;1.10;;
9370;SDS011;4725;48.384;8.984;2023-01-06T09:04:10;2.10;;;1.10;;
9370;SDS011;4725;48.384;8.984;2023-01-06T09:06:38;1.40;;;1.03;;
9370;SDS011;4725;48.384;8.984;2023-01-06T09:09:06;1.93;;;1.17;;
9370;SDS011;4725;48.384;8.984;2023-01-06T09:11:35;3.23;;;1.20;;
9370;SDS011;4725;48.384;8.984;2023-01-06T09:14:03;1.87;;;1.00;;
9370;SDS011;4725;48.384;8.984;2023-01-06T09:16:30;1.60;;;1.00;;
9370;SDS011;4725;48.384;8.984;2023-01-06T09:18:57;1.13;;;1.03;;
9370;SDS011;4725;48.384;8.984;2023-01-06T09:21:24;1.20;;;1.10;;
9370;SDS011;4725;48.384;8.984;2023-01-06T09:23:51;1.67;;;0.97;;
9370;SDS011;4725;48.384;8.984;2023-01-06T09:26:18;6.00;;;1.07;;
9370;SDS011;4725;48.384;8.984;2023-01-06T09:28:45;1.03;;;0.90;;
9370;SDS011;4725;48.384;8.984;2023-01-06T09:31:14;1.10;;;1.00;;
9370;SDS011;4725;48.384;8.984;2023-01-06T09:33:42;3.03;;;1.07;;
9370;SDS011;4725;48.384;8.984;2023-01-06T09:36:09;1.60;;;1.10;;
9370;SDS011;4725;48.384;8.984;2023-01-06T09:38:36;1.30;;;1.20;;
9370;SDS011;4725;48.384;8.984;2023-01-06T09:41:07;1.20;;;1.10;;
9370;SDS011;4725;48.384;8.984;2023-01-06T09:43:45;2.10;;;1.38;;
9370;SDS011;4725;48.384;8.984;2023-01-06T09:46:18;1.60;;;1.30;;
9370;SDS011;4725;48.384;8.984;2023-01-06T09:48:51;2.30;;;1.83;;
9370;SDS011;4725;48.384;8.984;2023-01-06T09:51:23;2.43;;;1.83;;
9370;SDS011;4725;48.384;8.984;2023-01-06T09:53:53;2.00;;;1.70;;
9370;SDS011;4725;48.384;8.984;2023-01-06T09:56:25;1.90;;;1.53;;
9370;SDS011;4725;48.384;8.984;2023-01-06T09:58:54;2.23;;;1.17;;
9370;SDS011;4725;48.384;8.984;2023-01-06T10:01:31;3.27;;;1.20;;
9370;SDS011;4725;48.384;8.984;2023-01-06T10:04:02;1.37;;;1.27;;
9370;SDS011;4725;48.384;8.984;2023-01-06T10:06:30;1.47;;;1.03;;
9370;SDS011;4725;48.384;8.984;2023-01-06T10:09:07;1.13;;;0.87;;
9370;SDS011;4725;48.384;8.984;2023-01-06T10:11:47;1.17;;;0.70;;
9370;SDS011;4725;48.384;8.984;2023-01-06T10:14:24;0.80;;;0.80;;
9370;SDS011;4725;48.384;8.984;2023-01-06T10:17:09;2.23;;;0.90;;
9370;SDS011;4725;48.384;8.984;2023-01-06T10:19:49;1.33;;;0.80;;
9370;SDS011;4725;48.384;8.984;2023-01-06T10:22:30;1.00;;;0.90;;
9370;SDS011;4725;48.384;8.984;2023-01-06T10:25:05;0.70;;;0.70;;
9370;SDS011;4725;48.384;8.984;2023-01-06T10:27:40;1.10;;;1.00;;
9370;SDS011;4725;48.384;8.984;2023-01-06T10:30:14;1.03;;;0.93;;
9370;SDS011;4725;48.384;8.984;2023-01-06T10:32:45;2.57;;;0.70;;
9370;SDS011;4725;48.384;8.984;2023-01-06T10:35:13;1.07;;;0.97;;
9370;SDS011;4725;48.384;8.984;2023-01-06T10:37:43;2.83;;;1.20;;
9370;SDS011;4725;48.384;8.984;2023-01-06T10:40:14;2.43;;;1.00;;
9370;SDS011;4725;48.384;8.984;2023-01-06T10:42:45;1.33;;;1.20;;
9370;SDS011;4725;48.384;8.984;2023-01-06T10:45:25;3.07;;;1.40;;
9370;SDS011;4725;48.384;8.984;2023-01-06T10:47:58;1.40;;;1.30;;
9370;SDS011;4725;48.384;8.984;2023-01-06T10:50:26;1.67;;;1.27;;
9370;SDS011;4725;48.384;8.984;2023-01-06T10:52:53;1.23;;;1.13;;
9370;SDS011;4725;48.384;8.984;2023-01-06T10:55:32;1.40;;;1.00;;
9370;SDS011;4725;48.384;8.984;2023-01-06T10:58:04;1.10;;;1.00;;
9370;SDS011;4725;48.384;8.984;2023-01-06T11:00:42;1.10;;;1.00;;
9370;SDS011;4725;48.384;8.984;2023-01-06T11:03:21;1.00;;;0.90;;
9370;SDS011;4725;48.384;8.984;2023-01-06T11:05:52;0.90;;;0.90;;
9370;SDS011;4725;48.384;8.984;2023-01-06T11:08:25;0.90;;;0.90;;
9370;SDS011;4725;48.384;8.984;2023-01-06T11:10:53;0.90;;;0.90;;
9370;SDS011;4725;48.384;8.984;2023-01-06T11:13:23;0.90;;;0.70;;
9370;SDS011;4725;48.384;8.984;2023-01-06T11:15:54;0.70;;;0.70;;
9370;SDS011;4725;48.384;8.984;2023-01-06T11:18:23;1.83;;;1.00;;
9370;SDS011;4725;48.384;8.984;2023-01-06T11:21:03;0.60;;;0.60;;
9370;SDS011;4725;48.384;8.984;2023-01-06T11:23:32;1.57;;;0.73;;
9370;SDS011;4725;48.384;8.984;2023-01-06T11:26:04;0.60;;;0.60;;
9370;SDS011;4725;48.384;8.984;2023-01-06T11:28:39;0.53;;;0.53;;
9370;SDS011;4725;48.384;8.984;2023-01-06T11:31:08;0.50;;;0.50;;
9370;SDS011;4725;48.384;8.984;2023-01-06T11:33:46;0.53;;;0.50;;
9370;SDS011;4725;48.384;8.984;2023-01-06T11:36:15;0.83;;;0.80;;
9370;SDS011;4725;48.384;8.984;2023-01-06T11:38:45;0.70;;;0.70;;
9370;SDS011;4725;48.384;8.984;2023-01-06T11:41:18;0.93;;;0.63;;
9370;SDS011;4725;48.384;8.984;2023-01-06T11:43:49;0.60;;;0.60;;
9370;SDS011;4725;48.384;8.984;2023-01-06T11:46:19;0.50;;;0.50;;
9370;SDS011;4725;48.384;8.984;2023-01-06T11:48:53;1.10;;;1.00;;
9370;SDS011;4725;48.384;8.984;2023-01-06T11:51:30;0.87;;;0.80;;
9370;SDS011;4725;48.384;8.984;2023-01-06T11:54:19;0.50;;;0.50;;
9370;SDS011;4725;48.384;8.984;2023-01-06T11:56:56;1.10;;;0.77;;
9370;SDS011;4725;48.384;8.984;2023-01-06T11:59:24;0.63;;;0.60;;
9370;SDS011;4725;48.384;8.984;2023-01-06T12:01:54;1.10;;;0.60;;
9370;SDS011;4725;48.384;8.984;2023-01-06T12:04:26;0.80;;;0.80;;
9370;SDS011;4725;48.384;8.984;2023-01-06T12:07:02;1.00;;;0.80;;
9370;SDS011;4725;48.384;8.984;2023-01-06T12:09:37;0.80;;;0.80;;
9370;SDS011;4725;48.384;8.984;2023-01-06T12:12:06;0.70;;;0.70;;
9370;SDS011;4725;48.384;8.984;2023-01-06T12:14:37;0.60;;;0.60;;
9370;SDS011;4725;48.384;8.984;2023-01-06T12:17:06;0.70;;;0.70;;
9370;SDS011;4725;48.384;8.984;2023-01-06T12:19:39;0.90;;;0.90;;
9370;SDS011;4725;48.384;8.984;2023-01-06T12:22:16;0.80;;;0.80;;
9370;SDS011;4725;48.384;8.984;2023-01-06T12:24:46;1.27;;;1.17;;
9370;SDS011;4725;48.384;8.984;2023-01-06T12:27:19;0.70;;;0.70;;
9370;SDS011;4725;48.384;8.984;2023-01-06T12:29:53;2.20;;;1.60;;
9370;SDS011;4725;48.384;8.984;2023-01-06T12:32:25;2.30;;;1.50;;
9370;SDS011;4725;48.384;8.984;2023-01-06T12:34:58;1.70;;;1.10;;
9370;SDS011;4725;48.384;8.984;2023-01-06T12:37:29;1.70;;;1.47;;
9370;SDS011;4725;48.384;8.984;2023-01-06T12:40:02;1.57;;;1.10;;
9370;SDS011;4725;48.384;8.984;2023-01-06T12:42:38;0.80;;;0.80;;
9370;SDS011;4725;48.384;8.984;2023-01-06T12:45:13;1.47;;;1.37;;
9370;SDS011;4725;48.384;8.984;2023-01-06T12:47:43;2.43;;;1.43;;
9370;SDS011;4725;48.384;8.984;2023-01-06T12:50:16;1.33;;;1.20;;
9370;SDS011;4725;48.384;8.984;2023-01-06T12:52:53;1.27;;;1.00;;
9370;SDS011;4725;48.384;8.984;2023-01-06T12:55:27;1.13;;;1.03;;
9370;SDS011;4725;48.384;8.984;2023-01-06T12:58:03;1.30;;;1.10;;
9370;SDS011;4725;48.384;8.984;2023-01-06T13:00:44;0.83;;;0.77;;
9370;SDS011;4725;48.384;8.984;2023-01-06T13:06:27;1.07;;;0.97;;
9370;SDS011;4725;48.384;8.984;2023-01-06T13:09:23;0.93;;;0.93;;
9370;SDS011;4725;48.384;8.984;2023-01-06T13:12:06;1.93;;;0.90;;
9370;SDS011;4725;48.384;8.984;2023-01-06T13:14:56;0.83;;;0.80;;
9370;SDS011;4725;48.384;8.984;2023-01-06T13:17:30;0.80;;;0.80;;
9370;SDS011;4725;48.384;8.984;2023-01-06T13:20:01;1.03;;;0.90;;
9370;SDS011;4725;48.384;8.984;2023-01-06T13:22:37;0.60;;;0.60;;
9370;SDS011;4725;48.384;8.984;2023-01-06T13:28:14;0.80;;;0.80;;
9370;SDS011;4725;48.384;8.984;2023-01-06T13:31:08;0.77;;;0.77;;
9370;SDS011;4725;48.384;8.984;2023-01-06T13:34:03;1.20;;;0.80;;
9370;SDS011;4725;48.384;8.984;2023-01-06T13:37:00;2.67;;;2.10;;
9370;SDS011;4725;48.384;8.984;2023-01-06T13:39:42;1.00;;;0.70;;
9370;SDS011;4725;48.384;8.984;2023-01-06T13:42:13;0.70;;;0.70;;
9370;SDS011;4725;48.384;8.984;2023-01-06T13:44:41;1.07;;;0.67;;
9370;SDS011;4725;48.384;8.984;2023-01-06T13:47:13;0.50;;;0.50;;
9370;SDS011;4725;48.384;8.984;2023-01-06T13:49:43;0.90;;;0.80;;
9370;SDS011;4725;48.384;8.984;2023-01-06T13:52:13;0.70;;;0.70;;
9370;SDS011;4725;48.384;8.984;2023-01-06T13:54:57;0.97;;;0.83;;
9370;SDS011;4725;48.384;8.984;2023-01-06T13:57:32;0.60;;;0.60;;
9370;SDS011;4725;48.384;8.984;2023-01-06T14:05:51;0.60;;;0.60;;
9370;SDS011;4725;48.384;8.984;2023-01-06T14:08:23;0.73;;;0.70;;
9370;SDS011;4725;48.384;8.984;2023-01-06T14:13:56;1.37;;;0.77;;
9370;SDS011;4725;48.384;8.984;2023-01-06T14:16:37;0.60;;;0.60;;
9370;SDS011;4725;48.384;8.984;2023-01-06T14:19:06;0.60;;;0.60;;
9370;SDS011;4725;48.384;8.984;2023-01-06T14:21:41;1.03;;;0.83;;
9370;SDS011;4725;48.384;8.984;2023-01-06T14:24:16;0.80;;;0.70;;
9370;SDS011;4725;48.384;8.984;2023-01-06T14:26:55;0.63;;;0.63;;
9370;SDS011;4725;48.384;8.984;2023-01-06T14:35:17;0.73;;;0.73;;
9370;SDS011;4725;48.384;8.984;2023-01-06T14:37:48;0.97;;;0.90;;
9370;SDS011;4725;48.384;8.984;2023-01-06T14:40:18;1.50;;;1.03;;
9370;SDS011;4725;48.384;8.984;2023-01-06T14:42:50;0.73;;;0.70;;
9370;SDS011;4725;48.384;8.984;2023-01-06T14:45:19;1.37;;;0.90;;
9370;SDS011;4725;48.384;8.984;2023-01-06T14:47:50;1.03;;;0.90;;
9370;SDS011;4725;48.384;8.984;2023-01-06T14:50:19;2.13;;;1.50;;
9370;SDS011;4725;48.384;8.984;2023-01-06T14:52:49;1.00;;;0.90;;
9370;SDS011;4725;48.384;8.984;2023-01-06T14:55:20;52.83;;;20.80;;
9370;SDS011;4725;48.384;8.984;2023-01-06T14:57:50;47.70;;;20.60;;
9370;SDS011;4725;48.384;8.984;2023-01-06T15:00:18;13.23;;;5.83;;
9370;SDS011;4725;48.384;8.984;2023-01-06T15:02:48;3.43;;;2.30;;
9370;SDS011;4725;48.384;8.984;2023-01-06T15:05:17;3.83;;;2.40;;
9370;SDS011;4725;48.384;8.984;2023-01-06T15:08:00;1.63;;;1.50;;
9370;SDS011;4725;48.384;8.984;2023-01-06T15:10:28;1.80;;;1.70;;
9370;SDS011;4725;48.384;8.984;2023-01-06T15:12:59;4.70;;;4.03;;
9370;SDS011;4725;48.384;8.984;2023-01-06T15:15:27;4.53;;;3.40;;
9370;SDS011;4725;48.384;8.984;2023-01-06T15:17:55;2.90;;;2.60;;
9370;SDS011;4725;48.384;8.984;2023-01-06T15:20:26;2.57;;;2.13;;
9370;SDS011;4725;48.384;8.984;2023-01-06T15:22:55;3.03;;;2.33;;
9370;SDS011;4725;48.384;8.984;2023-01-06T15:25:24;3.85;;;3.00;;
9370;SDS011;4725;48.384;8.984;2023-01-06T15:27:52;2.33;;;2.13;;
9370;SDS011;4725;48.384;8.984;2023-01-06T15:30:23;2.00;;;1.80;;
9370;SDS011;4725;48.384;8.984;2023-01-06T15:32:52;1.97;;;1.77;;
9370;SDS011;4725;48.384;8.984;2023-01-06T15:35:21;4.60;;;2.27;;
9370;SDS011;4725;48.384;8.984;2023-01-06T15:37:51;6.53;;;3.40;;
9370;SDS011;4725;48.384;8.984;2023-01-06T15:40:24;4.83;;;2.90;;
9370;SDS011;4725;48.384;8.984;2023-01-06T15:42:53;5.77;;;3.20;;
9370;SDS011;4725;48.384;8.984;2023-01-06T15:45:25;6.77;;;3.87;;
9370;SDS011;4725;48.384;8.984;2023-01-06T15:47:56;6.67;;;3.10;;
9370;SDS011;4725;48.384;8.984;2023-01-06T15:50:26;3.90;;;2.70;;
9370;SDS011;4725;48.384;8.984;2023-01-06T15:52:56;2.47;;;1.90;;
9370;SDS011;4725;48.384;8.984;2023-01-06T15:55:28;2.10;;;1.70;;
9370;SDS011;4725;48.384;8.984;2023-01-06T15:57:58;1.13;;;1.03;;
9370;SDS011;4725;48.384;8.984;2023-01-06T16:00:30;1.20;;;0.90;;
9370;SDS011;4725;48.384;8.984;2023-01-06T16:02:59;1.87;;;1.00;;